createdAt,value
2019-06-27T00:00:51.272Z,26.50
2019-06-27T00:03:21.699Z,26.50
2019-06-27T00:05:52.147Z,26.50
2019-06-27T00:08:22.897Z,26.40
2019-06-27T00:10:53.389Z,26.50
2019-06-27T00:13:23.797Z,26.50
2019-06-27T00:15:54.252Z,26.40
2019-06-27T00:18:24.685Z,26.30
2019-06-27T00:20:58.451Z,26.30
2019-06-27T00:23:28.896Z,26.30
2019-06-27T00:25:59.365Z,26.40
2019-06-27T00:28:29.775Z,26.40
2019-06-27T00:31:00.279Z,26.40
2019-06-27T00:33:30.738Z,26.40
2019-06-27T00:36:01.246Z,26.40
2019-06-27T00:38:31.651Z,26.20
2019-06-27T00:41:02.262Z,26.30
2019-06-27T00:43:32.670Z,26.20
2019-06-27T00:46:03.132Z,26.20
2019-06-27T00:48:33.594Z,26.30
2019-06-27T00:51:04.047Z,26.10
2019-06-27T00:53:34.513Z,26.00
2019-06-27T00:56:04.926Z,26.00
2019-06-27T00:58:35.405Z,26.00
2019-06-27T01:01:06.012Z,26.00
2019-06-27T01:03:36.517Z,26.00
2019-06-27T01:06:06.916Z,26.10
2019-06-27T01:08:37.384Z,26.00
2019-06-27T01:11:08.124Z,26.00
2019-06-27T01:13:38.596Z,26.10
2019-06-27T01:16:09.033Z,26.00
2019-06-27T01:18:39.495Z,25.90
2019-06-27T01:21:09.884Z,25.90
2019-06-27T01:23:40.322Z,25.80
2019-06-27T01:26:10.741Z,25.80
2019-06-27T01:28:41.249Z,25.60
2019-06-27T01:31:11.791Z,25.60
2019-06-27T01:33:42.471Z,25.50
2019-06-27T01:36:12.913Z,25.50
2019-06-27T01:38:43.364Z,25.40
2019-06-27T01:41:13.778Z,25.40
2019-06-27T01:43:44.281Z,25.40
2019-06-27T01:46:14.971Z,25.40
2019-06-27T01:48:45.492Z,25.40
2019-06-27T01:51:15.994Z,25.40
2019-06-27T01:53:46.605Z,25.40
2019-06-27T01:56:17.030Z,25.40
2019-06-27T01:58:47.523Z,25.40
2019-06-27T02:01:17.941Z,25.30
2019-06-27T02:03:48.492Z,25.20
2019-06-27T02:06:18.904Z,25.10
2019-06-27T02:08:49.632Z,25.10
2019-06-27T02:11:20.018Z,25.00
2019-06-27T02:13:50.566Z,25.00
2019-06-27T02:16:20.968Z,25.00
2019-06-27T02:18:51.521Z,25.00
2019-06-27T02:21:21.921Z,24.90
2019-06-27T02:23:52.495Z,24.80
2019-06-27T02:26:22.906Z,24.80
2019-06-27T02:28:53.452Z,24.90
2019-06-27T02:31:23.970Z,24.80
2019-06-27T02:33:54.423Z,24.80
2019-06-27T02:36:24.853Z,24.70
2019-06-27T02:38:55.401Z,24.70
2019-06-27T02:41:27.332Z,24.60
2019-06-27T02:43:58.102Z,24.60
2019-06-27T02:46:28.560Z,24.50
2019-06-27T02:48:59.068Z,24.50
2019-06-27T02:51:29.560Z,24.50
2019-06-27T02:53:59.976Z,24.40
2019-06-27T02:56:30.431Z,24.40
2019-06-27T02:59:00.944Z,24.50
2019-06-27T03:01:31.445Z,24.50
2019-06-27T03:04:02.025Z,24.40
2019-06-27T03:06:32.470Z,24.40
2019-06-27T03:09:02.989Z,24.40
2019-06-27T03:11:33.491Z,24.30
2019-06-27T03:14:02.775Z,24.30
2019-06-27T03:16:33.192Z,24.20
2019-06-27T03:19:04.010Z,24.20
2019-06-27T03:21:34.454Z,24.20
2019-06-27T03:24:04.887Z,24.10
2019-06-27T03:26:35.392Z,24.20
2019-06-27T03:29:05.867Z,24.10
2019-06-27T03:31:36.375Z,24.10
2019-06-27T03:34:06.809Z,24.10
2019-06-27T03:36:37.341Z,24.10
2019-06-27T03:39:07.913Z,24.00
2019-06-27T03:41:38.481Z,24.00
2019-06-27T03:44:08.907Z,24.00
2019-06-27T03:46:39.383Z,24.10
2019-06-27T03:49:09.779Z,24.10
2019-06-27T03:51:40.234Z,24.00
2019-06-27T03:54:10.662Z,24.00
2019-06-27T03:56:41.153Z,23.90
2019-06-27T03:59:13.666Z,23.90
2019-06-27T04:01:43.906Z,23.90
2019-06-27T04:04:14.317Z,23.90
2019-06-27T04:06:44.752Z,23.90
2019-06-27T04:09:15.179Z,23.90
2019-06-27T04:11:45.804Z,23.80
2019-06-27T04:14:16.301Z,23.80
2019-06-27T04:16:49.251Z,24.00
2019-06-27T04:19:18.963Z,24.10
2019-06-27T04:21:49.386Z,24.20
2019-06-27T04:24:19.981Z,24.20
2019-06-27T04:26:50.522Z,24.10
2019-06-27T04:29:33.629Z,24.10
2019-06-27T04:31:53.272Z,24.10
2019-06-27T04:34:23.748Z,24.20
2019-06-27T04:36:54.175Z,24.20
2019-06-27T04:39:24.676Z,24.30
2019-06-27T04:41:55.210Z,24.40
2019-06-27T04:44:25.772Z,24.40
2019-06-27T04:46:56.981Z,24.50
2019-06-27T04:49:27.452Z,24.50
2019-06-27T04:51:58.049Z,24.50
2019-06-27T04:54:28.509Z,24.50
2019-06-27T04:56:58.926Z,24.60
2019-06-27T04:59:51.450Z,24.40
2019-06-27T05:02:04.529Z,24.60
2019-06-27T05:04:35.034Z,24.70
2019-06-27T05:07:05.656Z,24.60
2019-06-27T05:09:36.130Z,24.70
2019-06-27T05:12:06.998Z,24.60
2019-06-27T05:14:37.658Z,24.70
2019-06-27T05:17:08.246Z,24.70
2019-06-27T05:19:40.161Z,24.80
2019-06-27T05:22:10.828Z,25.10
2019-06-27T05:24:41.333Z,25.70
2019-06-27T05:27:12.120Z,26.50
2019-06-27T05:29:43.486Z,27.30
2019-06-27T05:32:14.037Z,27.80
2019-06-27T05:34:44.718Z,28.10
2019-06-27T05:37:16.196Z,28.30
2019-06-27T05:39:46.667Z,28.30
2019-06-27T05:42:17.377Z,28.50
2019-06-27T05:44:47.856Z,28.40
2019-06-27T05:47:18.302Z,28.50
2019-06-27T05:49:48.856Z,28.30
2019-06-27T05:52:19.298Z,28.10
2019-06-27T05:54:49.712Z,28.00
2019-06-27T05:57:20.170Z,28.20
2019-06-27T05:59:50.597Z,28.20
2019-06-27T06:02:21.042Z,28.60
2019-06-27T06:04:53.090Z,29.30
2019-06-27T06:07:23.511Z,29.70
2019-06-27T06:09:53.992Z,29.80
2019-06-27T06:12:24.573Z,29.90
2019-06-27T06:14:55.071Z,30.50
2019-06-27T06:17:25.579Z,31.90
2019-06-27T06:19:55.939Z,32.60
2019-06-27T06:22:26.371Z,32.80
2019-06-27T06:24:58.275Z,33.20
2019-06-27T06:27:29.270Z,33.60
2019-06-27T06:29:59.817Z,34.20
2019-06-27T06:32:30.458Z,34.10
2019-06-27T06:35:00.968Z,34.60
2019-06-27T06:37:31.571Z,35.50
2019-06-27T06:40:02.198Z,36.20
2019-06-27T06:42:32.926Z,36.10
2019-06-27T06:45:03.444Z,35.70
2019-06-27T06:47:33.959Z,35.60
2019-06-27T06:50:07.676Z,36.90
2019-06-27T06:52:39.653Z,38.10
2019-06-27T06:55:10.020Z,38.30
2019-06-27T06:57:40.488Z,38.10
2019-06-27T07:00:12.786Z,38.90
2019-06-27T07:02:43.276Z,40.00
2019-06-27T07:05:13.982Z,39.80
2019-06-27T07:07:44.419Z,39.00
2019-06-27T07:10:15.226Z,37.90
2019-06-27T07:12:45.790Z,37.00
2019-06-27T07:15:16.834Z,36.60
2019-06-27T07:17:47.287Z,37.70
2019-06-27T07:20:18.508Z,39.60
2019-06-27T07:22:49.022Z,41.30
2019-06-27T07:25:19.695Z,41.90
2019-06-27T07:27:50.252Z,42.80
2019-06-27T07:30:20.909Z,42.50
2019-06-27T07:32:54.680Z,43.90
2019-06-27T07:35:25.235Z,44.60
2019-06-27T07:37:55.959Z,45.50
2019-06-27T07:40:26.601Z,45.40
2019-06-27T07:42:57.085Z,46.50
2019-06-27T07:45:27.524Z,46.60
2019-06-27T07:47:57.985Z,46.00
2019-06-27T07:50:28.452Z,46.50
2019-06-27T07:52:58.933Z,46.40
2019-06-27T07:55:29.700Z,47.00
2019-06-27T07:58:00.156Z,48.00
2019-06-27T08:00:30.530Z,48.40
2019-06-27T08:03:01.194Z,49.10
2019-06-27T08:05:31.688Z,48.90
2019-06-27T08:08:02.146Z,49.30
2019-06-27T08:10:32.656Z,48.80
2019-06-27T08:13:03.153Z,49.60
2019-06-27T08:15:33.709Z,48.60
2019-06-27T08:18:04.285Z,49.30
2019-06-27T08:20:35.763Z,49.30
2019-06-27T08:23:07.466Z,49.40
2019-06-27T08:25:37.970Z,49.70
2019-06-27T08:28:08.435Z,50.50
2019-06-27T08:30:38.931Z,50.50
2019-06-27T08:33:09.459Z,50.10
2019-06-27T08:35:39.910Z,50.20
2019-06-27T08:38:10.571Z,51.20
2019-06-27T08:40:41.160Z,51.00
2019-06-27T08:43:11.698Z,51.40
2019-06-27T08:45:42.397Z,52.30
2019-06-27T08:48:13.046Z,53.10
2019-06-27T08:50:43.564Z,52.30
2019-06-27T08:53:14.364Z,52.60
2019-06-27T08:55:44.801Z,52.70
2019-06-27T08:58:15.293Z,53.20
2019-06-27T09:00:46.115Z,53.50
2019-06-27T09:03:16.762Z,54.30
2019-06-27T09:05:47.265Z,54.40
2019-06-27T09:08:17.690Z,54.00
2019-06-27T09:10:48.317Z,53.30
2019-06-27T09:13:18.726Z,54.10
2019-06-27T09:15:49.216Z,54.40
2019-06-27T09:18:22.081Z,54.80
2019-06-27T09:20:52.566Z,54.40
2019-06-27T09:23:23.029Z,54.50
2019-06-27T09:25:53.497Z,54.70
2019-06-27T09:28:24.183Z,55.30
2019-06-27T09:30:54.614Z,55.80
2019-06-27T09:33:25.313Z,55.70
2019-06-27T09:35:55.825Z,56.50
2019-06-27T09:38:26.214Z,56.60
2019-06-27T09:40:56.879Z,57.00
2019-06-27T09:43:27.350Z,57.20
2019-06-27T09:45:57.831Z,56.40
2019-06-27T09:48:28.224Z,56.50
2019-06-27T09:50:58.747Z,56.50
2019-06-27T09:53:29.344Z,55.30
2019-06-27T09:55:59.969Z,53.70
2019-06-27T09:58:30.439Z,53.70
2019-06-27T10:01:00.907Z,54.10
2019-06-27T10:03:31.486Z,53.80
2019-06-27T10:06:02.060Z,53.20
2019-06-27T10:08:32.511Z,53.20
2019-06-27T10:11:03.098Z,53.00
2019-06-27T10:13:33.886Z,53.30
2019-06-27T10:16:04.378Z,53.10
2019-06-27T10:18:34.918Z,53.20
2019-06-27T10:21:05.783Z,52.50
2019-06-27T10:23:36.389Z,52.40
2019-06-27T10:26:06.863Z,51.70
2019-06-27T10:28:37.613Z,51.30
2019-06-27T10:31:08.295Z,50.10
2019-06-27T10:33:38.971Z,46.90
2019-06-27T10:36:11.658Z,45.70
2019-06-27T10:38:42.863Z,44.70
2019-06-27T10:41:13.352Z,43.60
2019-06-27T10:43:43.837Z,42.40
2019-06-27T10:46:14.335Z,41.30
2019-06-27T10:48:44.870Z,40.20
2019-06-27T10:51:15.469Z,39.10
2019-06-27T10:53:45.849Z,38.40
2019-06-27T10:56:16.376Z,37.60
2019-06-27T10:58:46.846Z,37.20
2019-06-27T11:01:17.398Z,36.60
2019-06-27T11:03:49.819Z,35.90
2019-06-27T11:06:20.532Z,35.80
2019-06-27T11:08:51.015Z,35.60
2019-06-27T11:11:21.822Z,35.30
2019-06-27T11:13:58.677Z,35.00
2019-06-27T11:16:25.171Z,34.70
2019-06-27T11:18:55.611Z,34.50
2019-06-27T11:21:26.117Z,34.20
2019-06-27T11:23:56.491Z,34.10
2019-06-27T11:26:30.364Z,34.10
2019-06-27T11:29:03.873Z,33.80
2019-06-27T11:31:34.838Z,33.60
2019-06-27T11:34:06.712Z,33.60
2019-06-27T11:36:37.456Z,33.40
2019-06-27T11:39:09.196Z,33.30
2019-06-27T11:41:39.559Z,33.30
2019-06-27T11:44:10.027Z,33.40
2019-06-27T11:46:40.487Z,33.40
2019-06-27T11:49:11.127Z,33.50
2019-06-27T11:51:44.492Z,33.60
2019-06-27T11:54:15.006Z,33.60
2019-06-27T11:56:48.525Z,33.70
2019-06-27T11:59:19.059Z,33.60
2019-06-27T12:01:49.737Z,33.60
2019-06-27T12:04:26.068Z,33.60
2019-06-27T12:06:57.475Z,33.30
2019-06-27T12:09:28.294Z,33.30
2019-06-27T12:11:58.830Z,33.30
2019-06-27T12:14:29.311Z,33.40
2019-06-27T12:16:59.820Z,33.40
2019-06-27T12:19:30.318Z,33.40
2019-06-27T12:22:00.853Z,33.40
2019-06-27T12:24:31.383Z,33.20
2019-06-27T12:27:01.882Z,33.20
2019-06-27T12:29:32.323Z,33.20
2019-06-27T12:32:03.248Z,33.30
2019-06-27T12:34:33.998Z,33.50
2019-06-27T12:37:04.541Z,33.30
2019-06-27T12:39:42.342Z,33.00
2019-06-27T12:42:12.846Z,32.90
2019-06-27T12:44:43.330Z,33.00
2019-06-27T12:47:13.896Z,33.00
2019-06-27T12:50:00.745Z,33.10
2019-06-27T12:52:17.072Z,33.20
2019-06-27T12:54:47.775Z,33.30
2019-06-27T12:57:18.414Z,33.40
2019-06-27T12:59:49.137Z,33.50
2019-06-27T13:02:21.455Z,33.50
2019-06-27T13:04:52.355Z,33.60
2019-06-27T13:07:22.886Z,33.70
2019-06-27T13:09:53.305Z,33.50
2019-06-27T13:12:24.174Z,33.30
2019-06-27T13:14:54.713Z,33.20
2019-06-27T13:17:25.325Z,33.30
2019-06-27T13:19:56.041Z,33.40
2019-06-27T13:22:26.593Z,33.40
2019-06-27T13:24:59.968Z,33.40
2019-06-27T13:27:30.537Z,33.60
2019-06-27T13:30:01.273Z,33.60
2019-06-27T13:32:32.004Z,33.60
2019-06-27T13:35:03.331Z,33.60
2019-06-27T13:37:34.477Z,33.60
2019-06-27T13:40:07.400Z,33.60
2019-06-27T13:42:38.650Z,33.60
2019-06-27T13:45:09.958Z,33.70
2019-06-27T13:47:41.011Z,33.60
2019-06-27T13:50:13.664Z,33.60
2019-06-27T13:52:45.197Z,33.40
2019-06-27T13:55:16.169Z,33.40
2019-06-27T13:57:46.745Z,33.20
2019-06-27T14:00:27.161Z,33.20
2019-06-27T14:02:57.701Z,33.40
2019-06-27T14:05:28.152Z,33.40
2019-06-27T14:07:58.738Z,33.50
2019-06-27T14:10:31.678Z,33.60
2019-06-27T14:13:02.215Z,33.80
2019-06-27T14:15:32.757Z,33.80
2019-06-27T14:18:03.292Z,33.70
2019-06-27T14:20:33.789Z,33.70
2019-06-27T14:23:04.401Z,33.70
2019-06-27T14:25:36.615Z,33.60
2019-06-27T14:28:07.642Z,33.50
2019-06-27T14:30:38.107Z,33.60
2019-06-27T14:33:08.687Z,33.60
2019-06-27T14:35:39.469Z,33.60
2019-06-27T14:38:09.951Z,33.60
2019-06-27T14:40:40.728Z,33.70
2019-06-27T14:43:11.214Z,33.70
2019-06-27T14:45:41.891Z,33.60
2019-06-27T14:48:15.315Z,33.30
2019-06-27T14:50:45.905Z,33.30
2019-06-27T14:53:16.600Z,33.40
2019-06-27T14:55:47.165Z,33.50
2019-06-27T14:58:17.636Z,33.40
2019-06-27T15:00:49.108Z,33.40
2019-06-27T15:03:19.716Z,33.50
2019-06-27T15:05:50.338Z,33.60
2019-06-27T15:08:23.330Z,33.60
2019-06-27T15:10:53.923Z,33.60
2019-06-27T15:13:24.453Z,33.40
2019-06-27T15:16:10.639Z,33.40
2019-06-27T15:18:28.034Z,33.40
2019-06-27T15:20:58.891Z,33.20
2019-06-27T15:23:29.513Z,33.10
2019-06-27T15:26:00.323Z,33.10
2019-06-27T15:28:34.158Z,33.00
2019-06-27T15:31:03.637Z,32.90
2019-06-27T15:33:34.275Z,33.00
2019-06-27T15:36:04.899Z,33.10
2019-06-27T15:38:37.251Z,33.10
2019-06-27T15:41:07.968Z,33.20
2019-06-27T15:43:38.519Z,33.20
2019-06-27T15:46:09.180Z,33.20
2019-06-27T15:48:39.708Z,33.20
2019-06-27T15:51:10.323Z,33.10
2019-06-27T15:53:40.784Z,33.10
2019-06-27T15:56:11.329Z,33.00
2019-06-27T15:58:41.786Z,33.00
2019-06-27T16:01:12.403Z,33.00
2019-06-27T16:03:45.721Z,33.00
2019-06-27T16:06:17.298Z,32.90
2019-06-27T16:08:48.270Z,32.80
2019-06-27T16:11:18.793Z,32.80
2019-06-27T16:13:49.309Z,32.70
2019-06-27T16:16:19.841Z,32.80
2019-06-27T16:18:50.649Z,32.80
2019-06-27T16:21:22.488Z,32.90
2019-06-27T16:23:53.059Z,32.90
2019-06-27T16:26:23.533Z,32.90
2019-06-27T16:28:54.112Z,32.90
2019-06-27T16:31:24.625Z,32.80
2019-06-27T16:33:59.080Z,32.80
2019-06-27T16:36:29.626Z,32.70
2019-06-27T16:39:00.285Z,32.70
2019-06-27T16:41:30.746Z,32.70
2019-06-27T16:44:04.440Z,32.70
2019-06-27T16:46:34.966Z,32.70
2019-06-27T16:49:05.417Z,32.60
2019-06-27T16:51:35.883Z,32.50
2019-06-27T16:54:06.680Z,32.50
2019-06-27T16:56:37.285Z,32.40
2019-06-27T16:59:07.884Z,32.30
2019-06-27T17:01:38.651Z,32.20
2019-06-27T17:04:09.536Z,32.10
2019-06-27T17:06:42.721Z,32.10
2019-06-27T17:09:13.619Z,32.10
2019-06-27T17:11:44.369Z,32.00
2019-06-27T17:14:14.905Z,31.90
2019-06-27T17:16:45.445Z,31.70
2019-06-27T17:19:16.067Z,31.70
2019-06-27T17:21:46.788Z,31.70
2019-06-27T17:24:17.789Z,31.70
2019-06-27T17:26:48.374Z,31.70
2019-06-27T17:29:22.190Z,31.60
2019-06-27T17:31:52.622Z,31.60
2019-06-27T17:34:23.487Z,31.50
2019-06-27T17:36:58.039Z,31.50
2019-06-27T17:39:26.214Z,31.40
2019-06-27T17:41:56.870Z,31.20
2019-06-27T17:44:27.379Z,31.20
2019-06-27T17:46:58.078Z,31.20
2019-06-27T17:49:28.580Z,31.00
2019-06-27T17:52:01.972Z,31.00
2019-06-27T17:54:32.448Z,30.80
2019-06-27T17:57:02.937Z,30.70
2019-06-27T17:59:33.458Z,30.70
2019-06-27T18:02:04.271Z,30.70
2019-06-27T18:04:34.765Z,30.60
2019-06-27T18:07:14.443Z,30.40
2019-06-27T18:09:38.053Z,30.20
2019-06-27T18:12:08.588Z,30.10
2019-06-27T18:14:39.019Z,30.00
2019-06-27T18:17:09.722Z,29.90
2019-06-27T18:19:40.197Z,29.70
2019-06-27T18:22:10.720Z,29.50
2019-06-27T18:24:41.811Z,29.20
2019-06-27T18:27:18.694Z,29.10
2019-06-27T18:29:51.287Z,29.00
2019-06-27T18:32:23.557Z,28.90
2019-06-27T18:34:56.073Z,28.70
2019-06-27T18:37:30.095Z,28.70
2019-06-27T18:39:58.900Z,28.60
2019-06-27T18:42:32.191Z,28.50
2019-06-27T18:45:02.733Z,28.40
2019-06-27T18:47:33.229Z,28.30
2019-06-27T18:50:03.766Z,28.20
2019-06-27T18:52:37.413Z,28.10
2019-06-27T18:55:08.587Z,28.00
2019-06-27T18:57:39.069Z,28.00
2019-06-27T19:00:11.464Z,27.80
2019-06-27T19:02:43.337Z,27.70
2019-06-27T19:05:13.845Z,27.60
2019-06-27T19:07:46.250Z,27.50
2019-06-27T19:10:18.682Z,27.50
2019-06-27T19:12:49.342Z,27.40
2019-06-27T19:15:19.821Z,27.20
2019-06-27T19:17:50.435Z,27.10
2019-06-27T19:20:39.862Z,27.00
2019-06-27T19:23:27.904Z,26.90
2019-06-27T19:26:00.778Z,26.90
2019-06-27T19:28:31.618Z,26.80
2019-06-27T19:31:02.329Z,26.60
2019-06-27T19:33:33.544Z,26.50
2019-06-27T19:36:04.404Z,26.40
2019-06-27T19:38:36.617Z,26.30
2019-06-27T19:41:07.810Z,26.20
2019-06-27T19:43:38.521Z,26.10
2019-06-27T19:46:09.336Z,26.10
2019-06-27T19:48:40.393Z,26.00
2019-06-27T19:51:11.276Z,26.00
2019-06-27T19:53:43.806Z,25.90
2019-06-27T19:56:14.525Z,25.90
2019-06-27T19:58:45.303Z,25.80
2019-06-27T20:01:16.043Z,25.70
2019-06-27T20:03:46.880Z,25.70
2019-06-27T20:06:17.403Z,25.60
2019-06-27T20:08:50.074Z,25.50
2019-06-27T20:11:20.690Z,25.40
2019-06-27T20:13:52.730Z,25.40
2019-06-27T20:16:23.179Z,25.40
2019-06-27T20:18:53.722Z,25.40
2019-06-27T20:21:25.003Z,25.40
2019-06-27T20:23:55.574Z,25.20
2019-06-27T20:26:26.063Z,25.20
2019-06-27T20:28:56.486Z,25.20
2019-06-27T20:31:26.945Z,25.20
2019-06-27T20:33:57.562Z,25.20
2019-06-27T20:36:27.980Z,25.20
2019-06-27T20:38:58.547Z,25.10
2019-06-27T20:41:29.526Z,25.10
2019-06-27T20:44:00.106Z,25.00
2019-06-27T20:46:32.185Z,25.00
2019-06-27T20:49:06.940Z,24.90
2019-06-27T20:51:37.229Z,24.80
2019-06-27T20:54:07.788Z,24.70
2019-06-27T20:56:38.244Z,24.60
2019-06-27T20:59:08.772Z,24.70
2019-06-27T21:01:39.358Z,24.60
2019-06-27T21:04:09.803Z,24.50
2019-06-27T21:06:41.736Z,24.30
2019-06-27T21:09:14.725Z,24.20
2019-06-27T21:11:48.047Z,24.20
2019-06-27T21:14:18.550Z,24.20
2019-06-27T21:16:49.020Z,24.20
2019-06-27T21:19:19.671Z,24.10
2019-06-27T21:21:52.993Z,24.00
2019-06-27T21:24:31.635Z,24.00
2019-06-27T21:27:02.148Z,23.90
2019-06-27T21:29:34.557Z,23.70
2019-06-27T21:32:05.208Z,23.60
2019-06-27T21:34:35.703Z,23.50
2019-06-27T21:37:06.222Z,23.40
2019-06-27T21:39:36.611Z,23.30
2019-06-27T21:42:07.125Z,23.30
2019-06-27T21:44:38.622Z,23.20
2019-06-27T21:47:09.175Z,23.20
2019-06-27T21:49:39.670Z,23.10
2019-06-27T21:52:10.217Z,23.10
2019-06-27T21:54:40.863Z,23.10
2019-06-27T21:57:11.465Z,23.00
2019-06-27T21:59:41.890Z,23.00
2019-06-27T22:02:12.404Z,22.90
2019-06-27T22:04:42.826Z,22.80
2019-06-27T22:07:14.866Z,22.70
2019-06-27T22:09:45.365Z,22.60
2019-06-27T22:12:16.957Z,22.50
2019-06-27T22:14:47.652Z,22.50
2019-06-27T22:17:18.228Z,22.40
2019-06-27T22:19:48.963Z,22.30
2019-06-27T22:22:19.423Z,22.20
2019-06-27T22:24:50.213Z,22.10
2019-06-27T22:27:20.668Z,22.10
2019-06-27T22:29:51.209Z,22.00
2019-06-27T22:32:23.295Z,21.90
2019-06-27T22:34:53.700Z,21.90
2019-06-27T22:37:26.000Z,21.80
2019-06-27T22:40:14.502Z,21.70
2019-06-27T22:43:04.380Z,21.70
2019-06-27T22:45:52.672Z,21.40
2019-06-27T22:48:23.512Z,21.30
2019-06-27T22:51:01.981Z,21.30
2019-06-27T22:53:35.805Z,21.20
2019-06-27T22:56:06.646Z,21.20
2019-06-27T22:58:37.334Z,21.20
2019-06-27T23:01:07.810Z,21.20
2019-06-27T23:03:38.278Z,21.10
2019-06-27T23:06:08.906Z,21.00
2019-06-27T23:08:39.359Z,21.00
2019-06-27T23:11:09.819Z,20.90
2019-06-27T23:13:40.303Z,20.90
2019-06-27T23:16:10.757Z,20.90
2019-06-27T23:18:42.031Z,20.80
2019-06-27T23:21:12.927Z,20.80
2019-06-27T23:23:43.589Z,20.70
2019-06-27T23:26:14.011Z,20.70
2019-06-27T23:28:44.567Z,20.80
2019-06-27T23:31:14.982Z,20.70
2019-06-27T23:33:45.614Z,20.60
2019-06-27T23:36:16.287Z,20.60
2019-06-27T23:38:46.788Z,20.50
2019-06-27T23:41:17.201Z,20.60
2019-06-27T23:43:47.625Z,20.50
2019-06-27T23:46:35.941Z,20.40
2019-06-27T23:49:06.402Z,20.40
2019-06-27T23:51:36.843Z,20.30
2019-06-27T23:54:07.452Z,20.20
2019-06-27T23:56:40.623Z,20.10
2019-06-27T23:59:10.252Z,20.10
